sensor_id;sensor_type;location;lat;lon;timestamp;P1;durP1;ratioP1;P2;durP2;ratioP2
46230;SDS011;31949;51.404;-0.038;2022-11-27T00:01:19;2.63;;;0.85;;
46230;SDS011;31949;51.404;-0.038;2022-11-27T00:03:47;1.60;;;0.70;;
46230;SDS011;31949;51.404;-0.038;2022-11-27T00:06:16;4.10;;;0.90;;
46230;SDS011;31949;51.404;-0.038;2022-11-27T00:08:45;2.58;;;0.68;;
46230;SDS011;31949;51.404;-0.038;2022-11-27T00:11:14;2.15;;;0.40;;
46230;SDS011;31949;51.404;-0.038;2022-11-27T00:13:43;1.25;;;0.50;;
46230;SDS011;31949;51.404;-0.038;2022-11-27T00:16:11;1.42;;;0.95;;
46230;SDS011;31949;51.404;-0.038;2022-11-27T00:18:40;2.25;;;0.60;;
46230;SDS011;31949;51.404;-0.038;2022-11-27T00:21:14;3.45;;;0.70;;
46230;SDS011;31949;51.404;-0.038;2022-11-27T00:23:44;1.80;;;0.68;;
46230;SDS011;31949;51.404;-0.038;2022-11-27T00:26:11;3.13;;;0.70;;
46230;SDS011;31949;51.404;-0.038;2022-11-27T00:28:39;5.40;;;1.10;;
46230;SDS011;31949;51.404;-0.038;2022-11-27T00:31:09;3.35;;;0.75;;
46230;SDS011;31949;51.404;-0.038;2022-11-27T00:33:43;1.02;;;0.50;;
46230;SDS011;31949;51.404;-0.038;2022-11-27T00:36:11;2.33;;;1.13;;
46230;SDS011;31949;51.404;-0.038;2022-11-27T00:38:39;3.80;;;0.70;;
46230;SDS011;31949;51.404;-0.038;2022-11-27T00:41:22;2.60;;;0.75;;
46230;SDS011;31949;51.404;-0.038;2022-11-27T00:43:51;2.15;;;0.55;;
46230;SDS011;31949;51.404;-0.038;2022-11-27T00:46:21;4.25;;;1.08;;
46230;SDS011;31949;51.404;-0.038;2022-11-27T00:48:54;2.13;;;0.80;;
46230;SDS011;31949;51.404;-0.038;2022-11-27T00:51:23;2.55;;;0.90;;
46230;SDS011;31949;51.404;-0.038;2022-11-27T00:53:51;4.28;;;1.42;;
46230;SDS011;31949;51.404;-0.038;2022-11-27T00:56:26;2.42;;;0.88;;
46230;SDS011;31949;51.404;-0.038;2022-11-27T00:58:55;4.35;;;1.05;;
46230;SDS011;31949;51.404;-0.038;2022-11-27T01:01:24;6.32;;;1.17;;
46230;SDS011;31949;51.404;-0.038;2022-11-27T01:03:54;2.05;;;1.08;;
46230;SDS011;31949;51.404;-0.038;2022-11-27T01:06:23;0.90;;;0.55;;
46230;SDS011;31949;51.404;-0.038;2022-11-27T01:08:51;2.17;;;0.60;;
46230;SDS011;31949;51.404;-0.038;2022-11-27T01:11:19;1.38;;;0.82;;
46230;SDS011;31949;51.404;-0.038;2022-11-27T01:13:48;3.08;;;0.82;;
46230;SDS011;31949;51.404;-0.038;2022-11-27T01:16:20;5.80;;;1.45;;
46230;SDS011;31949;51.404;-0.038;2022-11-27T01:18:49;4.38;;;0.73;;
46230;SDS011;31949;51.404;-0.038;2022-11-27T01:21:19;3.05;;;0.88;;
46230;SDS011;31949;51.404;-0.038;2022-11-27T01:23:47;4.68;;;0.85;;
46230;SDS011;31949;51.404;-0.038;2022-11-27T01:26:15;2.47;;;0.85;;
46230;SDS011;31949;51.404;-0.038;2022-11-27T01:28:44;1.67;;;0.93;;
46230;SDS011;31949;51.404;-0.038;2022-11-27T01:31:16;1.52;;;0.85;;
46230;SDS011;31949;51.404;-0.038;2022-11-27T01:33:45;6.07;;;1.55;;
46230;SDS011;31949;51.404;-0.038;2022-11-27T01:36:14;3.58;;;1.10;;
46230;SDS011;31949;51.404;-0.038;2022-11-27T01:38:42;2.67;;;0.73;;
46230;SDS011;31949;51.404;-0.038;2022-11-27T01:41:12;5.18;;;1.10;;
46230;SDS011;31949;51.404;-0.038;2022-11-27T01:43:41;1.75;;;1.02;;
46230;SDS011;31949;51.404;-0.038;2022-11-27T01:46:34;2.45;;;1.00;;
46230;SDS011;31949;51.404;-0.038;2022-11-27T01:51:55;3.28;;;0.88;;
46230;SDS011;31949;51.404;-0.038;2022-11-27T01:54:28;2.88;;;0.98;;
46230;SDS011;31949;51.404;-0.038;2022-11-27T01:57:02;3.72;;;1.33;;
46230;SDS011;31949;51.404;-0.038;2022-11-27T01:59:33;2.95;;;1.10;;
46230;SDS011;31949;51.404;-0.038;2022-11-27T02:02:01;5.32;;;1.50;;
46230;SDS011;31949;51.404;-0.038;2022-11-27T02:04:29;7.18;;;1.83;;
46230;SDS011;31949;51.404;-0.038;2022-11-27T02:06:57;2.72;;;0.73;;
46230;SDS011;31949;51.404;-0.038;2022-11-27T02:09:26;2.22;;;1.02;;
46230;SDS011;31949;51.404;-0.038;2022-11-27T02:14:51;1.75;;;0.73;;
46230;SDS011;31949;51.404;-0.038;2022-11-27T02:17:51;4.95;;;1.30;;
46230;SDS011;31949;51.404;-0.038;2022-11-27T02:20:57;2.10;;;0.80;;
46230;SDS011;31949;51.404;-0.038;2022-11-27T02:29:27;2.60;;;0.82;;
46230;SDS011;31949;51.404;-0.038;2022-11-27T02:35:12;3.00;;;0.50;;
46230;SDS011;31949;51.404;-0.038;2022-11-27T02:37:44;1.55;;;0.65;;
46230;SDS011;31949;51.404;-0.038;2022-11-27T02:40:29;4.15;;;0.85;;
46230;SDS011;31949;51.404;-0.038;2022-11-27T02:45:54;2.10;;;1.00;;
46230;SDS011;31949;51.404;-0.038;2022-11-27T02:48:26;3.78;;;0.88;;
46230;SDS011;31949;51.404;-0.038;2022-11-27T02:50:58;1.17;;;0.63;;
46230;SDS011;31949;51.404;-0.038;2022-11-27T02:53:31;4.20;;;0.80;;
46230;SDS011;31949;51.404;-0.038;2022-11-27T02:56:06;2.20;;;0.85;;
46230;SDS011;31949;51.404;-0.038;2022-11-27T03:01:06;0.60;;;0.50;;
46230;SDS011;31949;51.404;-0.038;2022-11-27T03:03:36;2.40;;;0.52;;
46230;SDS011;31949;51.404;-0.038;2022-11-27T03:06:11;3.97;;;0.50;;
46230;SDS011;31949;51.404;-0.038;2022-11-27T03:08:54;1.45;;;0.45;;
46230;SDS011;31949;51.404;-0.038;2022-11-27T03:11:28;4.07;;;0.90;;
46230;SDS011;31949;51.404;-0.038;2022-11-27T03:13:58;0.88;;;0.52;;
46230;SDS011;31949;51.404;-0.038;2022-11-27T03:16:35;0.98;;;0.47;;
46230;SDS011;31949;51.404;-0.038;2022-11-27T03:19:26;1.55;;;0.43;;
46230;SDS011;31949;51.404;-0.038;2022-11-27T03:21:59;1.25;;;0.70;;
46230;SDS011;31949;51.404;-0.038;2022-11-27T03:24:28;0.77;;;0.50;;
46230;SDS011;31949;51.404;-0.038;2022-11-27T03:26:59;4.30;;;0.55;;
46230;SDS011;31949;51.404;-0.038;2022-11-27T03:29:41;2.42;;;0.85;;
46230;SDS011;31949;51.404;-0.038;2022-11-27T03:32:12;1.60;;;0.55;;
46230;SDS011;31949;51.404;-0.038;2022-11-27T03:34:39;2.28;;;0.57;;
46230;SDS011;31949;51.404;-0.038;2022-11-27T03:37:08;1.63;;;0.60;;
46230;SDS011;31949;51.404;-0.038;2022-11-27T03:39:35;3.25;;;1.05;;
46230;SDS011;31949;51.404;-0.038;2022-11-27T03:47:24;1.38;;;0.43;;
46230;SDS011;31949;51.404;-0.038;2022-11-27T03:53:12;1.50;;;0.43;;
46230;SDS011;31949;51.404;-0.038;2022-11-27T03:58:32;1.33;;;0.50;;
46230;SDS011;31949;51.404;-0.038;2022-11-27T04:01:07;0.98;;;0.45;;
46230;SDS011;31949;51.404;-0.038;2022-11-27T04:03:38;1.73;;;0.45;;
46230;SDS011;31949;51.404;-0.038;2022-11-27T04:06:05;1.70;;;0.50;;
46230;SDS011;31949;51.404;-0.038;2022-11-27T04:08:32;2.90;;;0.55;;
46230;SDS011;31949;51.404;-0.038;2022-11-27T04:10:59;0.95;;;0.50;;
46230;SDS011;31949;51.404;-0.038;2022-11-27T04:13:26;1.38;;;1.05;;
46230;SDS011;31949;51.404;-0.038;2022-11-27T04:15:54;2.08;;;0.45;;
46230;SDS011;31949;51.404;-0.038;2022-11-27T04:18:21;3.83;;;0.77;;
46230;SDS011;31949;51.404;-0.038;2022-11-27T04:20:48;2.25;;;0.73;;
46230;SDS011;31949;51.404;-0.038;2022-11-27T04:23:15;1.60;;;0.50;;
46230;SDS011;31949;51.404;-0.038;2022-11-27T04:25:42;2.38;;;0.60;;
46230;SDS011;31949;51.404;-0.038;2022-11-27T04:28:09;1.08;;;0.47;;
46230;SDS011;31949;51.404;-0.038;2022-11-27T04:30:36;3.42;;;0.50;;
46230;SDS011;31949;51.404;-0.038;2022-11-27T04:33:03;4.18;;;0.43;;
46230;SDS011;31949;51.404;-0.038;2022-11-27T04:35:30;1.52;;;0.82;;
46230;SDS011;31949;51.404;-0.038;2022-11-27T04:37:58;1.98;;;0.50;;
46230;SDS011;31949;51.404;-0.038;2022-11-27T04:40:25;0.57;;;0.35;;
46230;SDS011;31949;51.404;-0.038;2022-11-27T04:42:52;1.17;;;0.38;;
46230;SDS011;31949;51.404;-0.038;2022-11-27T04:45:19;2.25;;;0.50;;
46230;SDS011;31949;51.404;-0.038;2022-11-27T04:47:46;1.85;;;0.60;;
46230;SDS011;31949;51.404;-0.038;2022-11-27T04:50:14;1.75;;;0.32;;
46230;SDS011;31949;51.404;-0.038;2022-11-27T04:52:41;0.75;;;0.40;;
46230;SDS011;31949;51.404;-0.038;2022-11-27T04:55:08;1.48;;;0.45;;
46230;SDS011;31949;51.404;-0.038;2022-11-27T04:57:35;1.45;;;0.55;;
46230;SDS011;31949;51.404;-0.038;2022-11-27T05:00:03;1.80;;;0.68;;
46230;SDS011;31949;51.404;-0.038;2022-11-27T05:02:31;1.67;;;0.70;;
46230;SDS011;31949;51.404;-0.038;2022-11-27T05:04:58;1.05;;;0.57;;
46230;SDS011;31949;51.404;-0.038;2022-11-27T05:07:25;1.23;;;0.40;;
46230;SDS011;31949;51.404;-0.038;2022-11-27T05:09:52;0.70;;;0.40;;
46230;SDS011;31949;51.404;-0.038;2022-11-27T05:12:19;0.93;;;0.55;;
46230;SDS011;31949;51.404;-0.038;2022-11-27T05:14:47;0.88;;;0.30;;
46230;SDS011;31949;51.404;-0.038;2022-11-27T05:17:14;1.85;;;0.40;;
46230;SDS011;31949;51.404;-0.038;2022-11-27T05:19:41;4.05;;;0.98;;
46230;SDS011;31949;51.404;-0.038;2022-11-27T05:22:08;0.60;;;0.30;;
46230;SDS011;31949;51.404;-0.038;2022-11-27T05:24:35;1.42;;;0.60;;
46230;SDS011;31949;51.404;-0.038;2022-11-27T05:27:03;1.67;;;0.38;;
46230;SDS011;31949;51.404;-0.038;2022-11-27T05:29:30;1.00;;;0.30;;
46230;SDS011;31949;51.404;-0.038;2022-11-27T05:31:57;1.95;;;0.60;;
46230;SDS011;31949;51.404;-0.038;2022-11-27T05:34:24;0.45;;;0.20;;
46230;SDS011;31949;51.404;-0.038;2022-11-27T05:36:51;2.60;;;0.57;;
46230;SDS011;31949;51.404;-0.038;2022-11-27T05:39:18;1.20;;;0.20;;
46230;SDS011;31949;51.404;-0.038;2022-11-27T05:41:45;1.15;;;0.30;;
46230;SDS011;31949;51.404;-0.038;2022-11-27T05:44:13;1.65;;;0.85;;
46230;SDS011;31949;51.404;-0.038;2022-11-27T05:46:41;0.75;;;0.30;;
46230;SDS011;31949;51.404;-0.038;2022-11-27T05:49:12;1.00;;;0.32;;
46230;SDS011;31949;51.404;-0.038;2022-11-27T05:51:41;1.05;;;0.50;;
46230;SDS011;31949;51.404;-0.038;2022-11-27T05:54:16;0.77;;;0.35;;
46230;SDS011;31949;51.404;-0.038;2022-11-27T05:56:44;0.98;;;0.28;;
46230;SDS011;31949;51.404;-0.038;2022-11-27T05:59:11;1.75;;;0.40;;
46230;SDS011;31949;51.404;-0.038;2022-11-27T06:01:38;0.40;;;0.25;;
46230;SDS011;31949;51.404;-0.038;2022-11-27T06:04:06;1.30;;;0.40;;
46230;SDS011;31949;51.404;-0.038;2022-11-27T06:06:33;0.57;;;0.20;;
46230;SDS011;31949;51.404;-0.038;2022-11-27T06:09:00;1.15;;;0.50;;
46230;SDS011;31949;51.404;-0.038;2022-11-27T06:11:27;0.40;;;0.32;;
46230;SDS011;31949;51.404;-0.038;2022-11-27T06:13:54;1.50;;;0.30;;
46230;SDS011;31949;51.404;-0.038;2022-11-27T06:16:22;2.65;;;0.40;;
46230;SDS011;31949;51.404;-0.038;2022-11-27T06:18:53;1.35;;;0.30;;
46230;SDS011;31949;51.404;-0.038;2022-11-27T06:21:21;0.28;;;0.15;;
46230;SDS011;31949;51.404;-0.038;2022-11-27T06:23:52;0.30;;;0.20;;
46230;SDS011;31949;51.404;-0.038;2022-11-27T06:28:49;1.23;;;0.40;;
46230;SDS011;31949;51.404;-0.038;2022-11-27T06:31:18;1.08;;;0.30;;
46230;SDS011;31949;51.404;-0.038;2022-11-27T06:33:47;0.73;;;0.30;;
46230;SDS011;31949;51.404;-0.038;2022-11-27T06:36:16;0.82;;;0.40;;
46230;SDS011;31949;51.404;-0.038;2022-11-27T06:38:44;0.88;;;0.10;;
46230;SDS011;31949;51.404;-0.038;2022-11-27T06:41:13;1.00;;;0.60;;
46230;SDS011;31949;51.404;-0.038;2022-11-27T06:43:41;0.28;;;0.20;;
46230;SDS011;31949;51.404;-0.038;2022-11-27T06:46:10;0.57;;;0.22;;
46230;SDS011;31949;51.404;-0.038;2022-11-27T06:48:42;0.95;;;0.30;;
46230;SDS011;31949;51.404;-0.038;2022-11-27T06:51:10;1.35;;;0.40;;
46230;SDS011;31949;51.404;-0.038;2022-11-27T06:53:40;0.85;;;0.20;;
46230;SDS011;31949;51.404;-0.038;2022-11-27T06:56:11;0.88;;;0.25;;
46230;SDS011;31949;51.404;-0.038;2022-11-27T06:58:42;1.85;;;0.57;;
46230;SDS011;31949;51.404;-0.038;2022-11-27T07:01:13;0.43;;;0.35;;
46230;SDS011;31949;51.404;-0.038;2022-11-27T07:03:42;0.45;;;0.30;;
46230;SDS011;31949;51.404;-0.038;2022-11-27T07:06:11;0.47;;;0.30;;
46230;SDS011;31949;51.404;-0.038;2022-11-27T07:08:40;0.30;;;0.13;;
46230;SDS011;31949;51.404;-0.038;2022-11-27T07:11:15;0.20;;;0.20;;
46230;SDS011;31949;51.404;-0.038;2022-11-27T07:13:47;0.32;;;0.20;;
46230;SDS011;31949;51.404;-0.038;2022-11-27T07:16:15;0.68;;;0.20;;
46230;SDS011;31949;51.404;-0.038;2022-11-27T07:18:47;0.32;;;0.20;;
46230;SDS011;31949;51.404;-0.038;2022-11-27T07:21:17;0.57;;;0.30;;
46230;SDS011;31949;51.404;-0.038;2022-11-27T07:23:44;0.10;;;0.10;;
46230;SDS011;31949;51.404;-0.038;2022-11-27T07:26:15;0.65;;;0.22;;
46230;SDS011;31949;51.404;-0.038;2022-11-27T07:28:45;0.63;;;0.20;;
46230;SDS011;31949;51.404;-0.038;2022-11-27T07:31:17;0.93;;;0.13;;
46230;SDS011;31949;51.404;-0.038;2022-11-27T07:33:47;1.10;;;0.43;;
46230;SDS011;31949;51.404;-0.038;2022-11-27T07:36:21;0.20;;;0.10;;
46230;SDS011;31949;51.404;-0.038;2022-11-27T07:38:50;1.80;;;0.28;;
46230;SDS011;31949;51.404;-0.038;2022-11-27T07:41:18;0.73;;;0.20;;
46230;SDS011;31949;51.404;-0.038;2022-11-27T07:43:45;0.40;;;0.30;;
46230;SDS011;31949;51.404;-0.038;2022-11-27T07:46:15;2.45;;;0.40;;
46230;SDS011;31949;51.404;-0.038;2022-11-27T07:48:44;0.38;;;0.30;;
46230;SDS011;31949;51.404;-0.038;2022-11-27T07:51:16;0.50;;;0.20;;
46230;SDS011;31949;51.404;-0.038;2022-11-27T07:53:45;0.52;;;0.30;;
46230;SDS011;31949;51.404;-0.038;2022-11-27T07:56:13;1.30;;;0.40;;
46230;SDS011;31949;51.404;-0.038;2022-11-27T07:58:41;1.02;;;0.30;;
46230;SDS011;31949;51.404;-0.038;2022-11-27T08:01:09;0.73;;;0.22;;
46230;SDS011;31949;51.404;-0.038;2022-11-27T08:03:38;0.40;;;0.30;;
46230;SDS011;31949;51.404;-0.038;2022-11-27T08:06:27;0.63;;;0.20;;
46230;SDS011;31949;51.404;-0.038;2022-11-27T08:08:54;0.60;;;0.38;;
46230;SDS011;31949;51.404;-0.038;2022-11-27T08:11:31;0.35;;;0.25;;
46230;SDS011;31949;51.404;-0.038;2022-11-27T08:14:04;0.88;;;0.30;;
46230;SDS011;31949;51.404;-0.038;2022-11-27T08:19:00;1.63;;;0.20;;
46230;SDS011;31949;51.404;-0.038;2022-11-27T08:21:28;0.30;;;0.10;;
46230;SDS011;31949;51.404;-0.038;2022-11-27T08:23:56;0.80;;;0.32;;
46230;SDS011;31949;51.404;-0.038;2022-11-27T08:26:23;0.50;;;0.30;;
46230;SDS011;31949;51.404;-0.038;2022-11-27T08:28:53;1.00;;;0.35;;
46230;SDS011;31949;51.404;-0.038;2022-11-27T08:31:20;2.05;;;0.52;;
46230;SDS011;31949;51.404;-0.038;2022-11-27T08:33:48;0.98;;;0.43;;
46230;SDS011;31949;51.404;-0.038;2022-11-27T08:36:16;1.42;;;0.57;;
46230;SDS011;31949;51.404;-0.038;2022-11-27T08:38:44;0.82;;;0.55;;
46230;SDS011;31949;51.404;-0.038;2022-11-27T08:41:12;0.93;;;0.55;;
46230;SDS011;31949;51.404;-0.038;2022-11-27T08:43:39;0.80;;;0.50;;
46230;SDS011;31949;51.404;-0.038;2022-11-27T08:46:06;1.08;;;0.57;;
46230;SDS011;31949;51.404;-0.038;2022-11-27T08:48:34;1.10;;;0.50;;
46230;SDS011;31949;51.404;-0.038;2022-11-27T08:51:08;0.98;;;0.55;;
46230;SDS011;31949;51.404;-0.038;2022-11-27T08:53:37;1.15;;;0.50;;
46230;SDS011;31949;51.404;-0.038;2022-11-27T08:56:08;0.90;;;0.40;;
46230;SDS011;31949;51.404;-0.038;2022-11-27T08:58:43;4.28;;;1.15;;
46230;SDS011;31949;51.404;-0.038;2022-11-27T09:04:04;0.40;;;0.30;;
46230;SDS011;31949;51.404;-0.038;2022-11-27T09:06:32;4.57;;;0.75;;
46230;SDS011;31949;51.404;-0.038;2022-11-27T09:09:03;0.88;;;0.60;;
46230;SDS011;31949;51.404;-0.038;2022-11-27T09:11:32;1.02;;;0.70;;
46230;SDS011;31949;51.404;-0.038;2022-11-27T09:14:00;1.13;;;0.88;;
46230;SDS011;31949;51.404;-0.038;2022-11-27T09:16:28;0.50;;;0.40;;
46230;SDS011;31949;51.404;-0.038;2022-11-27T09:18:56;1.02;;;0.60;;
46230;SDS011;31949;51.404;-0.038;2022-11-27T09:21:24;1.95;;;0.50;;
46230;SDS011;31949;51.404;-0.038;2022-11-27T09:23:53;0.77;;;0.25;;
46230;SDS011;31949;51.404;-0.038;2022-11-27T09:26:21;1.30;;;0.50;;
46230;SDS011;31949;51.404;-0.038;2022-11-27T09:28:51;1.05;;;0.60;;
46230;SDS011;31949;51.404;-0.038;2022-11-27T09:31:20;2.65;;;0.82;;
46230;SDS011;31949;51.404;-0.038;2022-11-27T09:33:48;0.98;;;0.70;;
46230;SDS011;31949;51.404;-0.038;2022-11-27T09:36:20;1.05;;;0.80;;
46230;SDS011;31949;51.404;-0.038;2022-11-27T09:38:49;1.85;;;0.60;;
46230;SDS011;31949;51.404;-0.038;2022-11-27T09:44:10;1.23;;;0.70;;
46230;SDS011;31949;51.404;-0.038;2022-11-27T09:47:00;1.92;;;0.82;;
46230;SDS011;31949;51.404;-0.038;2022-11-27T09:49:40;0.98;;;0.63;;
46230;SDS011;31949;51.404;-0.038;2022-11-27T10:00:57;1.02;;;0.60;;
46230;SDS011;31949;51.404;-0.038;2022-11-27T10:03:25;1.73;;;1.13;;
46230;SDS011;31949;51.404;-0.038;2022-11-27T10:06:05;1.10;;;0.80;;
46230;SDS011;31949;51.404;-0.038;2022-11-27T10:14:23;2.53;;;0.88;;
46230;SDS011;31949;51.404;-0.038;2022-11-27T10:16:54;2.88;;;1.00;;
46230;SDS011;31949;51.404;-0.038;2022-11-27T10:22:26;1.55;;;1.00;;
46230;SDS011;31949;51.404;-0.038;2022-11-27T10:27:50;2.75;;;1.25;;
46230;SDS011;31949;51.404;-0.038;2022-11-27T10:30:46;1.55;;;0.90;;
46230;SDS011;31949;51.404;-0.038;2022-11-27T10:33:48;2.45;;;0.98;;
46230;SDS011;31949;51.404;-0.038;2022-11-27T10:36:33;0.93;;;0.60;;
46230;SDS011;31949;51.404;-0.038;2022-11-27T10:39:05;1.20;;;0.50;;
46230;SDS011;31949;51.404;-0.038;2022-11-27T10:42:05;1.30;;;0.63;;
46230;SDS011;31949;51.404;-0.038;2022-11-27T10:44:45;1.58;;;0.82;;
46230;SDS011;31949;51.404;-0.038;2022-11-27T10:47:25;1.80;;;0.60;;
46230;SDS011;31949;51.404;-0.038;2022-11-27T10:49:59;2.42;;;0.68;;
46230;SDS011;31949;51.404;-0.038;2022-11-27T10:52:26;2.63;;;0.60;;
46230;SDS011;31949;51.404;-0.038;2022-11-27T10:55:01;1.33;;;0.60;;
46230;SDS011;31949;51.404;-0.038;2022-11-27T10:57:43;2.72;;;0.77;;
46230;SDS011;31949;51.404;-0.038;2022-11-27T11:00:31;1.73;;;0.70;;
46230;SDS011;31949;51.404;-0.038;2022-11-27T11:02:59;1.85;;;0.75;;
46230;SDS011;31949;51.404;-0.038;2022-11-27T11:05:27;3.05;;;1.02;;
46230;SDS011;31949;51.404;-0.038;2022-11-27T11:08:17;2.28;;;0.60;;
46230;SDS011;31949;51.404;-0.038;2022-11-27T11:10:59;1.80;;;0.70;;
46230;SDS011;31949;51.404;-0.038;2022-11-27T11:13:32;4.25;;;1.20;;
46230;SDS011;31949;51.404;-0.038;2022-11-27T11:16:06;1.13;;;0.73;;
46230;SDS011;31949;51.404;-0.038;2022-11-27T11:18:48;0.80;;;0.57;;
46230;SDS011;31949;51.404;-0.038;2022-11-27T11:21:26;0.90;;;0.65;;
46230;SDS011;31949;51.404;-0.038;2022-11-27T11:24:00;1.42;;;0.63;;
46230;SDS011;31949;51.404;-0.038;2022-11-27T11:26:30;2.80;;;0.88;;
46230;SDS011;31949;51.404;-0.038;2022-11-27T11:29:04;2.50;;;0.70;;
46230;SDS011;31949;51.404;-0.038;2022-11-27T11:31:42;2.10;;;0.80;;
46230;SDS011;31949;51.404;-0.038;2022-11-27T11:34:24;1.42;;;0.68;;
46230;SDS011;31949;51.404;-0.038;2022-11-27T11:36:58;2.85;;;0.95;;
46230;SDS011;31949;51.404;-0.038;2022-11-27T11:39:28;2.33;;;0.75;;
46230;SDS011;31949;51.404;-0.038;2022-11-27T11:42:14;3.38;;;1.17;;
46230;SDS011;31949;51.404;-0.038;2022-11-27T11:44:50;7.25;;;0.90;;
46230;SDS011;31949;51.404;-0.038;2022-11-27T11:47:27;2.35;;;0.90;;
46230;SDS011;31949;51.404;-0.038;2022-11-27T11:49:54;2.13;;;0.80;;
46230;SDS011;31949;51.404;-0.038;2022-11-27T11:55:42;4.88;;;0.77;;
46230;SDS011;31949;51.404;-0.038;2022-11-27T12:01:28;2.45;;;0.75;;
46230;SDS011;31949;51.404;-0.038;2022-11-27T12:07:20;5.53;;;1.50;;
46230;SDS011;31949;51.404;-0.038;2022-11-27T12:10:10;5.90;;;0.75;;
46230;SDS011;31949;51.404;-0.038;2022-11-27T12:20:30;4.55;;;1.13;;
46230;SDS011;31949;51.404;-0.038;2022-11-27T12:26:03;3.42;;;0.98;;
46230;SDS011;31949;51.404;-0.038;2022-11-27T12:34:35;4.30;;;1.20;;
46230;SDS011;31949;51.404;-0.038;2022-11-27T12:45:46;5.53;;;1.48;;
46230;SDS011;31949;51.404;-0.038;2022-11-27T12:56:43;4.85;;;2.13;;
46230;SDS011;31949;51.404;-0.038;2022-11-27T13:01:55;4.63;;;1.38;;
46230;SDS011;31949;51.404;-0.038;2022-11-27T13:04:34;4.53;;;1.10;;
46230;SDS011;31949;51.404;-0.038;2022-11-27T13:07:19;4.78;;;1.70;;
46230;SDS011;31949;51.404;-0.038;2022-11-27T13:09:57;5.03;;;1.30;;
46230;SDS011;31949;51.404;-0.038;2022-11-27T13:12:30;5.05;;;1.77;;
46230;SDS011;31949;51.404;-0.038;2022-11-27T13:15:04;6.90;;;1.83;;
46230;SDS011;31949;51.404;-0.038;2022-11-27T13:17:37;4.53;;;1.90;;
46230;SDS011;31949;51.404;-0.038;2022-11-27T13:20:18;5.00;;;1.17;;
46230;SDS011;31949;51.404;-0.038;2022-11-27T13:22:50;4.63;;;1.67;;
46230;SDS011;31949;51.404;-0.038;2022-11-27T13:25:17;7.18;;;2.10;;
46230;SDS011;31949;51.404;-0.038;2022-11-27T13:27:46;9.13;;;2.25;;
46230;SDS011;31949;51.404;-0.038;2022-11-27T13:30:19;6.18;;;1.58;;
46230;SDS011;31949;51.404;-0.038;2022-11-27T13:32:54;4.50;;;1.45;;
46230;SDS011;31949;51.404;-0.038;2022-11-27T13:35:41;7.15;;;2.35;;
46230;SDS011;31949;51.404;-0.038;2022-11-27T13:40:48;8.48;;;2.45;;
46230;SDS011;31949;51.404;-0.038;2022-11-27T13:43:24;6.55;;;1.98;;
46230;SDS011;31949;51.404;-0.038;2022-11-27T13:48:41;7.25;;;2.15;;
46230;SDS011;31949;51.404;-0.038;2022-11-27T13:51:24;6.18;;;2.30;;
46230;SDS011;31949;51.404;-0.038;2022-11-27T13:54:14;7.03;;;2.08;;
46230;SDS011;31949;51.404;-0.038;2022-11-27T13:56:43;11.52;;;2.38;;
46230;SDS011;31949;51.404;-0.038;2022-11-27T13:59:12;8.55;;;2.55;;
46230;SDS011;31949;51.404;-0.038;2022-11-27T14:01:51;9.13;;;2.88;;
46230;SDS011;31949;51.404;-0.038;2022-11-27T14:04:19;7.25;;;2.38;;
46230;SDS011;31949;51.404;-0.038;2022-11-27T14:07:03;7.85;;;2.63;;
46230;SDS011;31949;51.404;-0.038;2022-11-27T14:17:33;12.85;;;3.33;;
46230;SDS011;31949;51.404;-0.038;2022-11-27T14:22:51;12.75;;;4.20;;
46230;SDS011;31949;51.404;-0.038;2022-11-27T14:25:37;9.30;;;3.13;;
46230;SDS011;31949;51.404;-0.038;2022-11-27T14:28:14;14.32;;;4.50;;
46230;SDS011;31949;51.404;-0.038;2022-11-27T14:30:53;13.32;;;4.50;;
46230;SDS011;31949;51.404;-0.038;2022-11-27T14:33:23;13.40;;;4.22;;
46230;SDS011;31949;51.404;-0.038;2022-11-27T14:35:56;11.15;;;3.05;;
46230;SDS011;31949;51.404;-0.038;2022-11-27T14:38:25;11.68;;;3.45;;
46230;SDS011;31949;51.404;-0.038;2022-11-27T14:40:54;13.88;;;3.20;;
46230;SDS011;31949;51.404;-0.038;2022-11-27T14:43:34;8.65;;;2.53;;
46230;SDS011;31949;51.404;-0.038;2022-11-27T14:46:02;12.98;;;4.20;;
46230;SDS011;31949;51.404;-0.038;2022-11-27T14:48:39;9.18;;;3.38;;
46230;SDS011;31949;51.404;-0.038;2022-11-27T14:51:18;12.90;;;3.75;;
46230;SDS011;31949;51.404;-0.038;2022-11-27T14:53:48;11.30;;;3.58;;
46230;SDS011;31949;51.404;-0.038;2022-11-27T14:56:18;12.10;;;3.97;;
46230;SDS011;31949;51.404;-0.038;2022-11-27T14:58:49;15.38;;;4.63;;
46230;SDS011;31949;51.404;-0.038;2022-11-27T15:01:20;14.43;;;4.28;;
46230;SDS011;31949;51.404;-0.038;2022-11-27T15:03:58;13.52;;;4.47;;
46230;SDS011;31949;51.404;-0.038;2022-11-27T15:06:26;9.93;;;3.70;;
46230;SDS011;31949;51.404;-0.038;2022-11-27T15:08:59;18.15;;;4.68;;
46230;SDS011;31949;51.404;-0.038;2022-11-27T15:11:53;14.85;;;4.28;;
46230;SDS011;31949;51.404;-0.038;2022-11-27T15:14:29;11.10;;;3.40;;
46230;SDS011;31949;51.404;-0.038;2022-11-27T15:16:57;12.65;;;3.65;;
46230;SDS011;31949;51.404;-0.038;2022-11-27T15:19:26;12.30;;;3.30;;
46230;SDS011;31949;51.404;-0.038;2022-11-27T15:21:59;20.77;;;4.47;;
46230;SDS011;31949;51.404;-0.038;2022-11-27T15:24:29;15.27;;;3.50;;
46230;SDS011;31949;51.404;-0.038;2022-11-27T15:27:19;8.77;;;3.53;;
46230;SDS011;31949;51.404;-0.038;2022-11-27T15:34:49;12.05;;;4.00;;
46230;SDS011;31949;51.404;-0.038;2022-11-27T15:37:24;13.43;;;4.18;;
46230;SDS011;31949;51.404;-0.038;2022-11-27T15:39:56;10.93;;;3.95;;
46230;SDS011;31949;51.404;-0.038;2022-11-27T15:42:25;13.38;;;3.85;;
46230;SDS011;31949;51.404;-0.038;2022-11-27T15:45:03;11.43;;;3.63;;
46230;SDS011;31949;51.404;-0.038;2022-11-27T15:47:35;10.82;;;3.60;;
46230;SDS011;31949;51.404;-0.038;2022-11-27T15:52:31;13.30;;;4.07;;
46230;SDS011;31949;51.404;-0.038;2022-11-27T15:55:01;12.18;;;3.80;;
46230;SDS011;31949;51.404;-0.038;2022-11-27T15:57:28;17.13;;;4.63;;
46230;SDS011;31949;51.404;-0.038;2022-11-27T15:59:56;16.98;;;5.25;;
46230;SDS011;31949;51.404;-0.038;2022-11-27T16:02:23;19.27;;;4.53;;
46230;SDS011;31949;51.404;-0.038;2022-11-27T16:04:53;11.75;;;4.47;;
46230;SDS011;31949;51.404;-0.038;2022-11-27T16:07:21;13.48;;;5.28;;
46230;SDS011;31949;51.404;-0.038;2022-11-27T16:09:48;10.57;;;4.70;;
46230;SDS011;31949;51.404;-0.038;2022-11-27T16:12:15;14.38;;;4.03;;
46230;SDS011;31949;51.404;-0.038;2022-11-27T16:14:43;15.63;;;4.75;;
46230;SDS011;31949;51.404;-0.038;2022-11-27T16:17:11;16.23;;;5.45;;
46230;SDS011;31949;51.404;-0.038;2022-11-27T16:19:38;11.57;;;5.00;;
46230;SDS011;31949;51.404;-0.038;2022-11-27T16:22:05;14.32;;;4.53;;
46230;SDS011;31949;51.404;-0.038;2022-11-27T16:24:32;10.80;;;3.72;;
46230;SDS011;31949;51.404;-0.038;2022-11-27T16:27:00;11.32;;;4.10;;
46230;SDS011;31949;51.404;-0.038;2022-11-27T16:29:27;15.45;;;4.82;;
46230;SDS011;31949;51.404;-0.038;2022-11-27T16:31:54;11.27;;;3.92;;
46230;SDS011;31949;51.404;-0.038;2022-11-27T16:34:22;10.02;;;3.53;;
46230;SDS011;31949;51.404;-0.038;2022-11-27T16:36:49;15.55;;;4.53;;
46230;SDS011;31949;51.404;-0.038;2022-11-27T16:39:17;16.02;;;4.75;;
46230;SDS011;31949;51.404;-0.038;2022-11-27T16:41:44;12.13;;;4.80;;
46230;SDS011;31949;51.404;-0.038;2022-11-27T16:44:13;10.23;;;3.92;;
46230;SDS011;31949;51.404;-0.038;2022-11-27T16:46:42;13.10;;;5.72;;
46230;SDS011;31949;51.404;-0.038;2022-11-27T16:49:10;13.55;;;5.15;;
46230;SDS011;31949;51.404;-0.038;2022-11-27T16:51:39;14.82;;;5.35;;
46230;SDS011;31949;51.404;-0.038;2022-11-27T16:54:10;11.13;;;5.32;;
46230;SDS011;31949;51.404;-0.038;2022-11-27T16:56:40;14.02;;;5.45;;
46230;SDS011;31949;51.404;-0.038;2022-11-27T16:59:08;18.02;;;5.70;;
46230;SDS011;31949;51.404;-0.038;2022-11-27T17:01:37;13.32;;;4.35;;
46230;SDS011;31949;51.404;-0.038;2022-11-27T17:04:07;13.70;;;5.18;;
46230;SDS011;31949;51.404;-0.038;2022-11-27T17:06:40;17.58;;;6.22;;
46230;SDS011;31949;51.404;-0.038;2022-11-27T17:09:07;19.27;;;5.95;;
46230;SDS011;31949;51.404;-0.038;2022-11-27T17:11:36;22.25;;;5.03;;